La Place, Illinois
Current Conditions -  °F | °C
As of 3:54 PM on Tuesday 21 Oct 2014 (Local Time) from KDEC Reporting Station
Clear Clear  
Wind Chill: 60°   Ceiling: Unl
Heat Index: 60°   Visibility: 10mi
Dew Point: 39°   Wind: 12mph
Humidity: 46%   Direction: 10°N
Pressure: 30.14"   Gusts: NA
Location:  39.8°N, 88.71°W
Report Text: KDEC 212054Z 01010KT 10SM CLR 16/04 A3014 RMK AO2 SLP208 T01560039 55001
Loading
Personal Weather Stations






























Interactive Weather Map
Tropical Storm Tracking
New forecast layout! Learn more

10-Day Weather Forecast

Advertisements
Track Severe Weather on mobile